Time;durP1;ratioP1;P1;durP2;ratioP2;P2;SDS_P1;SDS_P2;PMS_P1;PMS_P2;Temp;Humidity;BMP_temperature;BMP_pressure;BME280_temperature;BME280_humidity;BME280_pressure;Samples;Min_cycle;Max_cycle;Signal;HPM_P1;HPM_P2
2022/01/05 00:01:17;;;;;;;9.55;3.05;;;4.40;99.90;;;;;;5034121;28;20199;-59
2022/01/05 00:03:45;;;;;;;4.80;2.00;;;4.40;99.90;;;;;;5033626;28;20226;-59
2022/01/05 00:06:12;;;;;;;5.05;2.10;;;4.40;99.90;;;;;;5033233;28;20580;-61
2022/01/05 00:08:39;;;;;;;8.98;2.35;;;4.40;99.90;;;;;;5033496;28;20572;-60
2022/01/05 00:11:07;;;;;;;10.45;2.10;;;4.40;99.90;;;;;;5033835;28;20215;-61
2022/01/05 00:13:34;;;;;;;8.23;1.90;;;4.40;99.90;;;;;;5033427;28;20233;-59
2022/01/05 00:16:01;;;;;;;7.82;2.20;;;4.40;99.90;;;;;;5033080;28;20206;-60
2022/01/05 00:18:28;;;;;;;8.30;2.10;;;4.30;99.90;;;;;;5033272;28;20202;-60
2022/01/05 00:20:57;;;;;;;7.20;2.47;;;4.40;99.90;;;;;;5033089;28;20206;-60
2022/01/05 00:23:24;;;;;;;5.05;1.75;;;4.40;99.90;;;;;;5032844;28;20246;-60
2022/01/05 00:25:51;;;;;;;5.43;2.05;;;4.40;99.90;;;;;;5036851;28;20202;-59
2022/01/05 00:28:18;;;;;;;6.25;2.35;;;4.40;99.90;;;;;;5037120;28;20202;-59
2022/01/05 00:30:45;;;;;;;5.35;2.00;;;4.40;99.90;;;;;;5040268;28;20211;-60
2022/01/05 00:33:14;;;;;;;6.05;1.95;;;4.40;99.90;;;;;;5044955;28;20202;-60
2022/01/05 00:35:42;;;;;;;7.47;2.45;;;4.40;99.90;;;;;;5043512;28;20630;-60
2022/01/05 00:38:10;;;;;;;9.90;3.08;;;4.40;99.90;;;;;;5038021;28;20206;-60
2022/01/05 00:40:37;;;;;;;7.22;2.20;;;4.40;99.90;;;;;;5037259;28;20209;-60
2022/01/05 00:43:04;;;;;;;6.43;2.22;;;4.40;99.90;;;;;;5037224;28;20205;-61
2022/01/05 00:45:31;;;;;;;5.90;1.90;;;4.40;99.90;;;;;;5037199;28;20210;-60
2022/01/05 00:47:58;;;;;;;3.95;2.20;;;4.30;99.90;;;;;;5037002;28;20206;-60
2022/01/05 00:50:26;;;;;;;3.65;1.92;;;4.30;99.90;;;;;;5036789;28;20206;-60
2022/01/05 00:52:59;;;;;;;5.05;1.90;;;4.30;99.90;;;;;;5036816;28;20206;-60
2022/01/05 00:55:28;;;;;;;6.30;2.50;;;4.40;99.90;;;;;;5036888;28;20207;-61
2022/01/05 00:57:55;;;;;;;8.40;3.13;;;4.40;99.90;;;;;;5037078;28;20202;-59
2022/01/05 01:00:22;;;;;;;5.60;2.20;;;4.40;99.90;;;;;;5036826;28;20206;-60
2022/01/05 01:02:49;;;;;;;6.57;2.58;;;4.40;99.90;;;;;;5036255;28;20199;-60
2022/01/05 01:05:16;;;;;;;7.05;2.20;;;4.40;99.90;;;;;;5036685;28;20562;-61
2022/01/05 01:07:44;;;;;;;7.90;2.40;;;4.40;99.90;;;;;;5036509;28;20206;-60
2022/01/05 01:10:12;;;;;;;6.25;2.20;;;4.40;99.90;;;;;;5036488;28;20285;-60
2022/01/05 01:12:40;;;;;;;7.18;2.25;;;4.40;99.90;;;;;;5036462;28;20229;-60
2022/01/05 01:15:10;;;;;;;6.00;2.67;;;4.40;99.90;;;;;;5036076;28;20686;-60
2022/01/05 01:17:37;;;;;;;5.03;1.85;;;4.40;99.90;;;;;;5036087;28;20206;-60
2022/01/05 01:20:05;;;;;;;7.40;2.35;;;4.40;99.90;;;;;;5036209;28;20198;-60
2022/01/05 01:22:33;;;;;;;5.00;2.22;;;4.40;99.90;;;;;;5035953;28;20209;-60
2022/01/05 01:25:01;;;;;;;6.65;2.28;;;4.40;99.90;;;;;;5036195;28;20222;-60
2022/01/05 01:27:28;;;;;;;7.03;2.75;;;4.40;99.90;;;;;;5035901;28;20693;-60
2022/01/05 01:29:56;;;;;;;6.30;1.83;;;4.30;99.90;;;;;;5036402;28;20256;-60
2022/01/05 01:32:23;;;;;;;8.60;2.40;;;4.40;99.90;;;;;;5036882;28;20213;-60
2022/01/05 01:34:51;;;;;;;3.47;2.55;;;4.30;99.90;;;;;;5036308;28;20234;-60
2022/01/05 01:37:18;;;;;;;4.25;2.13;;;4.30;99.90;;;;;;5035569;28;20203;-60
2022/01/05 01:39:45;;;;;;;4.22;1.95;;;4.30;99.90;;;;;;5036323;28;20209;-60
2022/01/05 01:42:12;;;;;;;7.28;1.98;;;4.30;99.90;;;;;;5036709;28;20202;-60
2022/01/05 01:44:39;;;;;;;6.90;2.30;;;4.30;99.90;;;;;;5036807;28;20235;-59
2022/01/05 01:47:08;;;;;;;5.72;2.13;;;4.30;99.90;;;;;;5037403;28;20206;-59
2022/01/05 01:49:35;;;;;;;5.97;2.78;;;4.30;99.90;;;;;;5037195;28;20211;-60
2022/01/05 01:52:02;;;;;;;7.30;1.92;;;4.20;99.90;;;;;;5037137;28;20280;-59
2022/01/05 01:54:30;;;;;;;8.65;2.10;;;4.20;99.90;;;;;;5037003;28;20233;-59
2022/01/05 01:56:58;;;;;;;4.68;1.90;;;4.20;99.90;;;;;;5036431;28;20711;-59
2022/01/05 01:59:27;;;;;;;4.40;1.80;;;4.10;99.90;;;;;;5036064;28;20210;-59
2022/01/05 02:01:55;;;;;;;5.50;1.92;;;4.10;99.90;;;;;;5036310;28;20213;-60
2022/01/05 02:04:23;;;;;;;8.65;2.03;;;4.10;99.90;;;;;;5036612;28;20242;-59
2022/01/05 02:06:51;;;;;;;7.63;1.50;;;4.10;99.90;;;;;;5036869;28;20213;-60
2022/01/05 02:09:18;;;;;;;5.43;2.58;;;4.10;99.90;;;;;;5036933;28;20203;-60
2022/01/05 02:11:45;;;;;;;7.57;2.28;;;4.10;99.90;;;;;;5036249;28;20209;-60
2022/01/05 02:14:13;;;;;;;3.97;1.73;;;4.10;99.90;;;;;;5035980;28;20222;-59
2022/01/05 02:16:43;;;;;;;5.63;2.30;;;4.10;99.90;;;;;;5035665;28;20202;-58
2022/01/05 02:19:10;;;;;;;12.80;3.08;;;4.10;99.90;;;;;;5036342;28;20215;-60
2022/01/05 02:21:39;;;;;;;5.82;2.20;;;4.10;99.90;;;;;;5035898;28;20202;-60
2022/01/05 02:24:08;;;;;;;6.63;1.70;;;4.10;99.90;;;;;;5035306;28;20249;-59
2022/01/05 02:26:36;;;;;;;6.55;2.58;;;4.10;99.90;;;;;;5035604;28;20218;-59
2022/01/05 02:29:03;;;;;;;4.80;1.83;;;4.10;99.90;;;;;;5035445;28;20206;-59
2022/01/05 02:31:30;;;;;;;8.95;2.65;;;4.10;99.90;;;;;;5035968;28;20209;-60
2022/01/05 02:33:57;;;;;;;9.85;3.05;;;4.10;99.90;;;;;;5034834;28;20233;-60
2022/01/05 02:36:24;;;;;;;6.13;1.85;;;4.00;99.90;;;;;;5035339;28;20203;-60
2022/01/05 02:38:54;;;;;;;9.90;2.30;;;4.00;99.90;;;;;;5035123;28;20206;-60
2022/01/05 02:41:22;;;;;;;6.45;2.30;;;4.00;99.90;;;;;;5034829;28;20205;-60
2022/01/05 02:43:49;;;;;;;7.78;2.53;;;4.00;99.90;;;;;;5035024;28;20908;-60
2022/01/05 02:46:18;;;;;;;9.60;2.10;;;4.00;99.90;;;;;;5035409;28;20211;-60
2022/01/05 02:48:46;;;;;;;4.75;2.25;;;3.90;99.90;;;;;;5034035;28;20667;-59
2022/01/05 02:51:14;;;;;;;4.82;2.53;;;3.90;99.90;;;;;;5034834;28;20216;-60
2022/01/05 02:53:41;;;;;;;8.73;2.25;;;3.90;99.90;;;;;;5034792;28;20229;-59
2022/01/05 02:56:10;;;;;;;5.53;2.05;;;3.80;99.90;;;;;;5034817;28;20233;-60
2022/01/05 02:58:37;;;;;;;5.38;2.28;;;3.80;99.90;;;;;;5034793;28;20202;-60
2022/01/05 03:01:04;;;;;;;6.47;1.80;;;3.80;99.90;;;;;;5034580;28;20213;-60
2022/01/05 03:03:32;;;;;;;7.15;2.00;;;3.80;99.90;;;;;;5034513;28;20222;-60
2022/01/05 03:05:59;;;;;;;6.03;2.03;;;3.80;99.90;;;;;;5034562;28;20678;-59
2022/01/05 03:08:26;;;;;;;5.88;2.05;;;3.70;99.90;;;;;;5034510;28;20671;-60
2022/01/05 03:10:53;;;;;;;5.22;2.00;;;3.70;99.90;;;;;;5034404;28;20206;-60
2022/01/05 03:13:23;;;;;;;7.97;2.67;;;3.70;99.90;;;;;;5034460;28;20336;-60
2022/01/05 03:15:51;;;;;;;6.75;1.60;;;3.70;99.90;;;;;;5034403;28;20320;-59
2022/01/05 03:18:18;;;;;;;7.00;2.10;;;3.70;99.90;;;;;;5034315;28;20209;-60
2022/01/05 03:20:46;;;;;;;3.88;1.90;;;3.70;99.90;;;;;;5034981;28;20203;-59
2022/01/05 03:23:14;;;;;;;11.70;3.15;;;3.70;99.90;;;;;;5035172;28;20558;-59
2022/01/05 03:25:42;;;;;;;6.55;3.90;;;3.70;99.90;;;;;;5034699;28;20205;-59
2022/01/05 03:28:10;;;;;;;5.10;2.15;;;3.70;99.90;;;;;;5034156;28;20202;-59
2022/01/05 03:30:39;;;;;;;7.45;2.40;;;3.60;99.90;;;;;;5034404;28;20206;-59
2022/01/05 03:33:20;;;;;;;7.82;2.53;;;3.60;99.90;;;;;;5033665;28;20213;-59
2022/01/05 03:35:48;;;;;;;7.13;2.65;;;3.60;99.90;;;;;;5034290;28;20218;-59
2022/01/05 03:38:17;;;;;;;12.38;2.92;;;3.60;99.90;;;;;;5033546;28;20209;-60
2022/01/05 03:40:46;;;;;;;5.50;2.55;;;3.60;99.90;;;;;;5033779;28;20221;-59
2022/01/05 03:43:13;;;;;;;5.07;2.47;;;3.60;99.90;;;;;;5033611;28;20198;-60
2022/01/05 03:45:42;;;;;;;3.70;1.92;;;3.60;99.90;;;;;;5033526;28;20205;-60
2022/01/05 03:48:10;;;;;;;7.35;3.00;;;3.60;99.90;;;;;;5033445;28;20198;-59
2022/01/05 03:50:38;;;;;;;5.70;2.53;;;3.60;99.90;;;;;;5033392;28;20202;-60
2022/01/05 03:53:06;;;;;;;7.43;2.70;;;3.60;99.90;;;;;;5033097;28;20677;-59
2022/01/05 03:55:35;;;;;;;4.50;1.70;;;3.60;99.90;;;;;;5033542;28;20690;-60
2022/01/05 03:58:03;;;;;;;7.55;2.00;;;3.60;99.90;;;;;;5033172;28;20210;-60
2022/01/05 04:00:31;;;;;;;5.88;2.05;;;3.50;99.90;;;;;;5032847;28;20217;-59
2022/01/05 04:03:01;;;;;;;11.35;2.53;;;3.50;99.90;;;;;;5033190;28;20202;-59
2022/01/05 04:05:29;;;;;;;5.13;2.40;;;3.50;99.90;;;;;;5033176;28;20209;-60
2022/01/05 04:09:07;;;;;;;5.03;2.85;;;3.50;99.90;;;;;;5091271;27;20610;-59
2022/01/05 04:11:34;;;;;;;7.65;2.97;;;3.40;99.90;;;;;;5090713;28;20209;-57
2022/01/05 04:14:01;;;;;;;6.22;2.13;;;3.40;99.90;;;;;;5090527;28;20589;-59
2022/01/05 04:16:28;;;;;;;8.68;3.80;;;3.40;99.90;;;;;;5090490;28;20211;-60
2022/01/05 04:18:55;;;;;;;6.22;2.10;;;3.40;99.90;;;;;;5090819;28;20219;-59
2022/01/05 04:21:22;;;;;;;6.85;2.22;;;3.30;99.90;;;;;;5080742;22;20238;-54
2022/01/05 04:23:49;;;;;;;3.42;1.90;;;3.30;99.90;;;;;;5050536;28;20198;-54
2022/01/05 04:26:18;;;;;;;9.38;2.65;;;3.30;99.90;;;;;;5050109;28;20213;-55
2022/01/05 04:28:45;;;;;;;8.18;1.98;;;3.30;99.90;;;;;;5050212;28;20229;-54
2022/01/05 04:31:12;;;;;;;6.25;2.45;;;3.30;99.90;;;;;;5049930;28;20218;-54
2022/01/05 04:33:39;;;;;;;8.50;2.50;;;3.20;99.90;;;;;;5049947;28;20205;-54
2022/01/05 04:36:06;;;;;;;11.13;2.35;;;3.20;99.90;;;;;;5050067;28;20202;-54
2022/01/05 04:38:33;;;;;;;6.63;1.95;;;3.20;99.90;;;;;;5049689;28;20209;-55
2022/01/05 04:41:00;;;;;;;4.15;1.85;;;3.10;99.90;;;;;;5049996;28;20232;-54
2022/01/05 04:43:29;;;;;;;6.65;2.80;;;3.10;99.90;;;;;;5050692;28;20280;-54
2022/01/05 04:45:56;;;;;;;7.70;1.88;;;3.10;99.90;;;;;;5052116;28;20214;-54
2022/01/05 04:48:23;;;;;;;6.15;2.53;;;3.10;99.90;;;;;;5051442;28;20224;-54
2022/01/05 04:50:50;;;;;;;6.35;2.60;;;3.10;99.90;;;;;;5050923;28;20233;-54
2022/01/05 04:53:17;;;;;;;6.18;1.98;;;3.10;99.90;;;;;;5050417;28;20201;-54
2022/01/05 04:55:45;;;;;;;6.78;1.83;;;3.10;99.90;;;;;;5050313;28;20202;-54
2022/01/05 04:58:12;;;;;;;3.42;1.88;;;3.10;99.90;;;;;;5050214;28;20229;-53
2022/01/05 05:00:41;;;;;;;5.35;2.55;;;3.10;99.90;;;;;;5050060;28;20300;-54
2022/01/05 05:03:08;;;;;;;7.03;2.80;;;3.10;99.90;;;;;;5050640;28;20213;-53
2022/01/05 05:05:35;;;;;;;4.82;1.95;;;3.10;99.90;;;;;;5050105;28;20701;-54
2022/01/05 05:08:03;;;;;;;6.53;1.92;;;3.10;99.90;;;;;;5049746;28;20627;-54
2022/01/05 05:10:30;;;;;;;6.78;1.85;;;3.00;99.90;;;;;;5049984;28;20228;-54
2022/01/05 05:12:57;;;;;;;6.28;1.80;;;3.00;99.90;;;;;;5050080;28;20213;-54
2022/01/05 05:15:24;;;;;;;3.72;1.38;;;3.00;99.90;;;;;;5049645;28;20697;-53
2022/01/05 05:17:52;;;;;;;5.35;3.03;;;3.00;99.90;;;;;;5050144;28;20198;-54
2022/01/05 05:20:19;;;;;;;6.40;2.30;;;3.00;99.90;;;;;;5036424;28;20718;-54
2022/01/05 05:22:46;;;;;;;3.53;2.40;;;3.00;99.90;;;;;;5035990;28;20210;-53
2022/01/05 05:25:13;;;;;;;7.28;2.55;;;3.00;99.90;;;;;;5036394;28;20209;-53
2022/01/05 05:27:41;;;;;;;5.13;2.35;;;3.00;99.90;;;;;;5035940;28;20230;-53
2022/01/05 05:30:08;;;;;;;9.10;1.90;;;3.00;99.90;;;;;;5036242;28;20225;-53
2022/01/05 05:32:36;;;;;;;5.10;1.90;;;3.00;99.90;;;;;;5036709;28;20203;-53
2022/01/05 05:35:05;;;;;;;5.30;1.73;;;3.00;99.90;;;;;;5036146;28;20213;-54
2022/01/05 05:37:32;;;;;;;9.57;2.20;;;3.00;99.90;;;;;;5035674;28;20202;-53
2022/01/05 05:39:59;;;;;;;6.07;1.65;;;3.00;99.90;;;;;;5035450;28;20229;-54
2022/01/05 05:42:26;;;;;;;9.65;2.25;;;2.90;99.90;;;;;;5035930;28;20209;-54
2022/01/05 05:44:54;;;;;;;4.97;1.55;;;2.90;99.90;;;;;;5036210;28;20237;-53
2022/01/05 05:47:21;;;;;;;6.15;2.28;;;3.00;99.90;;;;;;5035409;28;20213;-53
2022/01/05 05:49:48;;;;;;;8.15;2.20;;;3.00;99.90;;;;;;5035956;28;20231;-53
2022/01/05 05:52:17;;;;;;;16.45;2.20;;;3.00;99.90;;;;;;5035066;28;20551;-54
2022/01/05 05:54:44;;;;;;;11.95;2.42;;;3.00;99.80;;;;;;5035829;28;20202;-54
2022/01/05 05:57:11;;;;;;;2.38;1.27;;;3.00;99.70;;;;;;5035505;28;20229;-54
2022/01/05 05:59:38;;;;;;;4.93;2.35;;;3.00;99.60;;;;;;5035312;28;20199;-54
2022/01/05 06:02:05;;;;;;;14.45;2.30;;;3.00;99.60;;;;;;5035482;28;20210;-54
2022/01/05 06:04:32;;;;;;;6.82;1.90;;;3.00;99.60;;;;;;5035424;28;20198;-54
2022/01/05 06:06:59;;;;;;;7.53;2.10;;;2.90;99.60;;;;;;5035192;28;20206;-54
2022/01/05 06:09:27;;;;;;;7.88;2.17;;;2.90;99.80;;;;;;5034687;28;20222;-55
2022/01/05 06:11:55;;;;;;;7.95;1.85;;;2.80;99.90;;;;;;5035208;28;20233;-54
2022/01/05 06:14:22;;;;;;;5.10;2.30;;;2.80;99.90;;;;;;5035005;28;20221;-53
2022/01/05 06:16:49;;;;;;;7.35;2.40;;;2.80;99.90;;;;;;5034787;28;20602;-54
2022/01/05 06:19:16;;;;;;;10.25;2.10;;;2.70;99.90;;;;;;5034305;28;20194;-56
2022/01/05 06:21:44;;;;;;;11.68;2.70;;;2.70;99.90;;;;;;5033857;28;20237;-53
2022/01/05 06:24:11;;;;;;;5.75;2.03;;;2.80;99.90;;;;;;5034662;28;20206;-53
2022/01/05 06:26:39;;;;;;;13.35;3.33;;;2.80;99.90;;;;;;5034366;28;20202;-56
2022/01/05 06:29:08;;;;;;;8.88;2.40;;;2.80;99.90;;;;;;5034804;28;20233;-54
2022/01/05 06:31:35;;;;;;;6.10;2.30;;;2.80;99.90;;;;;;5033174;28;20246;-54
2022/01/05 06:34:02;;;;;;;10.02;2.65;;;2.80;99.90;;;;;;5034414;28;20210;-56
2022/01/05 06:36:29;;;;;;;6.18;1.92;;;2.80;99.90;;;;;;5035137;28;20209;-56
2022/01/05 06:38:56;;;;;;;5.28;2.08;;;2.80;99.90;;;;;;5034555;28;20203;-54
2022/01/05 06:41:23;;;;;;;5.90;3.03;;;2.80;99.90;;;;;;5034928;28;20226;-55
2022/01/05 06:43:51;;;;;;;7.57;2.80;;;2.80;99.90;;;;;;5034669;28;20214;-55
2022/01/05 06:46:18;;;;;;;4.68;2.25;;;2.80;99.90;;;;;;5034286;28;20203;-56
2022/01/05 06:48:46;;;;;;;9.80;3.20;;;2.70;99.90;;;;;;5034372;28;20217;-57
2022/01/05 06:51:13;;;;;;;5.40;2.03;;;2.70;99.90;;;;;;5034751;28;20218;-55
2022/01/05 06:53:40;;;;;;;8.20;2.28;;;2.70;99.90;;;;;;5034660;28;20202;-57
2022/01/05 06:56:07;;;;;;;7.65;2.45;;;2.70;99.90;;;;;;5034522;28;20213;-54
2022/01/05 06:58:34;;;;;;;6.63;2.50;;;2.70;99.90;;;;;;5034141;28;20206;-54
2022/01/05 07:01:03;;;;;;;8.95;3.28;;;2.80;99.90;;;;;;5034002;28;20226;-54
2022/01/05 07:03:30;;;;;;;7.55;2.15;;;2.70;99.90;;;;;;5034237;28;20306;-56
2022/01/05 07:05:57;;;;;;;9.80;2.72;;;2.70;99.90;;;;;;5034142;28;20206;-54
2022/01/05 07:08:24;;;;;;;9.10;2.60;;;2.70;99.90;;;;;;5033811;28;20225;-54
2022/01/05 07:10:51;;;;;;;9.13;2.15;;;2.80;99.90;;;;;;5033690;28;20229;-55
2022/01/05 07:13:18;;;;;;;4.82;2.20;;;2.80;99.90;;;;;;5033966;28;20210;-53
2022/01/05 07:15:45;;;;;;;9.02;2.20;;;2.80;99.90;;;;;;5033863;28;20203;-55
2022/01/05 07:18:13;;;;;;;7.20;3.13;;;2.80;99.90;;;;;;5034093;28;20206;-55
2022/01/05 07:20:40;;;;;;;12.60;3.72;;;2.80;99.90;;;;;;5033406;28;20740;-55
2022/01/05 07:23:08;;;;;;;9.23;3.40;;;2.80;99.90;;;;;;5033487;28;20202;-54
2022/01/05 07:25:36;;;;;;;11.20;3.30;;;2.80;99.90;;;;;;5033839;28;20218;-55
2022/01/05 07:28:03;;;;;;;9.93;3.58;;;2.70;99.90;;;;;;5033596;28;20222;-55
2022/01/05 07:30:30;;;;;;;10.05;3.22;;;2.80;99.90;;;;;;5033655;28;20225;-56
2022/01/05 07:32:57;;;;;;;13.88;4.05;;;2.80;99.90;;;;;;5033453;28;20682;-55
2022/01/05 07:35:25;;;;;;;6.18;2.90;;;2.70;99.90;;;;;;5033964;28;20206;-56
2022/01/05 07:37:52;;;;;;;7.45;2.78;;;2.80;99.90;;;;;;5033145;28;20198;-54
2022/01/05 07:40:19;;;;;;;10.57;3.38;;;2.80;99.90;;;;;;5033850;28;20225;-55
2022/01/05 07:42:46;;;;;;;6.90;3.60;;;2.80;99.90;;;;;;5032979;28;20198;-57
2022/01/05 07:45:14;;;;;;;4.90;3.30;;;2.80;99.90;;;;;;5033956;28;20205;-56
2022/01/05 07:47:41;;;;;;;12.68;2.85;;;2.80;99.90;;;;;;5034742;28;20205;-54
2022/01/05 07:50:14;;;;;;;11.98;3.95;;;2.80;99.90;;;;;;5033996;28;20222;-54
2022/01/05 07:52:44;;;;;;;7.57;2.88;;;2.80;99.90;;;;;;5033935;28;20187;-54
2022/01/05 07:55:12;;;;;;;6.40;3.58;;;2.80;99.90;;;;;;5033954;28;20561;-54
2022/01/05 07:57:39;;;;;;;6.43;3.53;;;2.80;99.90;;;;;;5033942;28;20697;-55
2022/01/05 08:00:08;;;;;;;10.57;3.50;;;2.90;99.90;;;;;;5034581;28;20226;-55
2022/01/05 08:02:35;;;;;;;9.88;3.55;;;2.90;99.90;;;;;;5034261;28;20202;-54
2022/01/05 08:05:02;;;;;;;10.48;4.78;;;2.90;99.90;;;;;;5033616;28;20198;-54
2022/01/05 08:07:29;;;;;;;5.60;4.20;;;2.90;99.90;;;;;;5033989;28;20244;-55
2022/01/05 08:09:58;;;;;;;7.97;3.22;;;2.90;99.90;;;;;;5034092;28;20702;-56
2022/01/05 08:12:25;;;;;;;9.80;3.22;;;3.00;99.90;;;;;;5034159;28;20206;-54
2022/01/05 08:14:52;;;;;;;14.52;4.05;;;3.10;99.90;;;;;;5033648;28;20207;-55
2022/01/05 08:17:19;;;;;;;12.75;3.90;;;3.10;99.90;;;;;;5034170;28;20213;-55
2022/01/05 08:19:46;;;;;;;11.52;3.50;;;3.10;99.90;;;;;;5033158;28;20233;-56
2022/01/05 08:22:13;;;;;;;9.30;3.67;;;3.10;99.90;;;;;;5034312;28;20195;-54
2022/01/05 08:24:40;;;;;;;7.93;3.58;;;3.10;99.90;;;;;;5034298;28;20577;-54
2022/01/05 08:27:09;;;;;;;10.38;4.38;;;3.10;99.90;;;;;;5033496;28;20225;-55
2022/01/05 08:29:36;;;;;;;9.82;3.90;;;3.20;99.90;;;;;;5033052;28;20229;-54
2022/01/05 08:32:05;;;;;;;13.05;6.15;;;3.20;99.90;;;;;;5032888;28;20203;-54
2022/01/05 08:34:32;;;;;;;8.75;4.60;;;3.20;99.90;;;;;;5032497;28;20202;-54
2022/01/05 08:37:00;;;;;;;8.68;3.42;;;3.20;99.90;;;;;;5032930;28;20217;-54
2022/01/05 08:39:27;;;;;;;7.60;4.00;;;3.20;99.90;;;;;;5033860;28;20290;-55
2022/01/05 08:41:54;;;;;;;8.63;4.00;;;3.30;99.90;;;;;;5032717;28;20202;-54
2022/01/05 08:44:23;;;;;;;8.95;3.95;;;3.40;99.90;;;;;;5032847;28;20198;-53
2022/01/05 08:46:50;;;;;;;11.85;4.00;;;3.50;99.90;;;;;;5032384;28;20218;-52
2022/01/05 08:49:17;;;;;;;6.43;3.30;;;3.60;99.90;;;;;;5032584;28;20218;-55
2022/01/05 08:51:44;;;;;;;8.00;3.75;;;3.70;99.90;;;;;;5032478;28;20218;-52
2022/01/05 08:54:11;;;;;;;7.22;3.75;;;3.80;99.90;;;;;;5033574;28;20244;-54
2022/01/05 08:56:39;;;;;;;12.35;4.38;;;3.90;99.90;;;;;;5036462;28;20198;-54
2022/01/05 08:59:06;;;;;;;11.30;4.25;;;3.90;99.80;;;;;;5036519;28;20213;-55
2022/01/05 09:01:34;;;;;;;8.88;3.90;;;4.00;99.80;;;;;;5036067;28;20230;-55
2022/01/05 09:04:01;;;;;;;10.25;3.75;;;4.10;99.60;;;;;;5036350;28;20685;-55
2022/01/05 09:06:28;;;;;;;10.10;3.90;;;4.10;99.50;;;;;;5036373;28;20202;-54
2022/01/05 09:08:55;;;;;;;6.53;3.83;;;4.10;99.30;;;;;;5036008;28;20218;-56
2022/01/05 09:11:23;;;;;;;10.50;4.32;;;4.10;99.10;;;;;;5036396;28;20229;-55
2022/01/05 09:13:50;;;;;;;7.60;3.95;;;4.20;98.90;;;;;;5036432;28;20202;-55
2022/01/05 09:16:17;;;;;;;13.20;4.60;;;4.20;98.70;;;;;;5035994;28;20206;-55
2022/01/05 09:18:46;;;;;;;7.05;4.18;;;4.20;98.60;;;;;;5036353;28;20198;-54
2022/01/05 09:21:13;;;;;;;18.67;4.93;;;4.30;98.50;;;;;;5035802;28;20233;-56
2022/01/05 09:23:40;;;;;;;5.95;5.00;;;4.30;98.30;;;;;;5036017;28;20198;-54
2022/01/05 09:26:07;;;;;;;12.20;5.10;;;4.30;98.20;;;;;;5035840;28;20210;-54
2022/01/05 09:28:40;;;;;;;10.50;4.30;;;4.40;98.10;;;;;;5036087;28;20577;-55
2022/01/05 09:31:08;;;;;;;10.30;4.50;;;4.40;98.00;;;;;;5036024;28;20250;-54
2022/01/05 09:33:35;;;;;;;6.38;4.68;;;4.40;97.50;;;;;;5036301;28;20198;-55
2022/01/05 09:36:10;;;;;;;10.55;5.25;;;4.40;97.60;;;;;;5035718;28;20272;-55
2022/01/05 09:41:56;;;;;;;8.02;5.50;;;4.50;97.80;;;;;;5035451;28;20646;-55
2022/01/05 09:44:27;;;;;;;7.72;4.28;;;4.60;97.50;;;;;;5013317;28;20338;-55
2022/01/05 09:47:22;;;;;;;6.97;4.85;;;4.60;97.30;;;;;;5013035;28;20198;-57
2022/01/05 09:49:54;;;;;;;6.93;5.30;;;4.70;97.00;;;;;;5027910;28;20229;-57
2022/01/05 09:52:24;;;;;;;6.65;4.95;;;4.80;96.80;;;;;;5035310;28;20225;-56
2022/01/05 09:54:51;;;;;;;9.95;5.05;;;4.80;96.70;;;;;;5035128;28;20225;-58
2022/01/05 09:57:21;;;;;;;10.40;5.40;;;4.80;96.80;;;;;;5035125;28;20198;-54
2022/01/05 09:59:49;;;;;;;7.03;5.20;;;4.70;97.10;;;;;;5034936;28;20716;-56
2022/01/05 10:02:17;;;;;;;10.65;5.35;;;4.70;97.30;;;;;;5035355;28;20206;-56
2022/01/05 10:04:46;;;;;;;11.00;5.50;;;4.70;97.50;;;;;;5034882;28;20206;-56
2022/01/05 10:07:13;;;;;;;10.15;5.85;;;4.80;97.50;;;;;;5035190;28;20213;-56
2022/01/05 10:09:43;;;;;;;7.75;5.75;;;4.80;97.50;;;;;;5034606;28;20708;-57
2022/01/05 10:12:13;;;;;;;7.75;5.22;;;4.80;97.40;;;;;;5035210;28;20209;-58
2022/01/05 10:14:41;;;;;;;7.28;5.55;;;4.80;97.30;;;;;;5035140;28;20233;-55
2022/01/05 10:17:10;;;;;;;13.05;6.80;;;4.80;97.00;;;;;;5034702;28;20198;-55
2022/01/05 10:19:38;;;;;;;9.63;5.25;;;4.80;97.00;;;;;;5034338;28;20202;-56
2022/01/05 10:22:27;;;;;;;8.13;4.53;;;4.80;96.90;;;;;;5034960;28;20187;-56
2022/01/05 10:24:56;;;;;;;7.13;5.85;;;4.80;96.90;;;;;;5034555;28;20186;-56
2022/01/05 10:27:25;;;;;;;8.95;5.82;;;4.80;97.10;;;;;;5034640;28;20681;-56
2022/01/05 10:29:54;;;;;;;8.10;5.90;;;4.70;97.50;;;;;;5034487;28;20234;-56
2022/01/05 10:32:21;;;;;;;5.63;5.13;;;4.60;98.50;;;;;;5034433;28;20214;-56
2022/01/05 10:35:10;;;;;;;9.35;6.30;;;4.40;99.20;;;;;;5034488;28;20233;-55
2022/01/05 10:37:41;;;;;;;4.85;4.35;;;4.20;99.90;;;;;;5034599;28;20190;-56
2022/01/05 10:40:19;;;;;;;6.13;5.10;;;4.10;99.90;;;;;;5034044;28;20710;-57
2022/01/05 10:42:47;;;;;;;5.20;4.70;;;3.90;99.90;;;;;;5034366;28;20187;-55
2022/01/05 10:45:17;;;;;;;4.43;4.05;;;3.90;99.90;;;;;;5034096;28;20202;-55
2022/01/05 10:48:01;;;;;;;10.20;8.85;;;3.80;99.90;;;;;;5034440;28;20206;-57
2022/01/05 10:50:28;;;;;;;5.25;4.85;;;3.80;99.90;;;;;;5033955;28;20281;-56
2022/01/05 10:52:56;;;;;;;5.47;4.50;;;3.80;99.90;;;;;;5034138;28;20203;-54
2022/01/05 10:55:26;;;;;;;5.68;5.28;;;3.80;99.90;;;;;;5034161;28;20210;-54
2022/01/05 10:58:02;;;;;;;4.90;4.40;;;3.90;99.90;;;;;;5034723;28;20210;-55
2022/01/05 11:00:40;;;;;;;5.75;5.15;;;3.90;99.90;;;;;;5034077;28;20224;-55
2022/01/05 11:03:26;;;;;;;5.70;5.30;;;3.90;99.90;;;;;;5034025;28;20190;-55
2022/01/05 11:06:04;;;;;;;6.38;5.78;;;4.00;99.90;;;;;;5033930;28;20209;-56
2022/01/05 11:08:32;;;;;;;6.60;5.80;;;4.00;99.90;;;;;;5034648;28;20281;-58
2022/01/05 11:11:00;;;;;;;5.80;5.30;;;4.10;99.90;;;;;;5033216;28;20258;-54
2022/01/05 11:13:28;;;;;;;5.40;5.00;;;4.10;99.90;;;;;;5033930;28;20624;-56
2022/01/05 11:15:57;;;;;;;6.40;5.70;;;4.20;99.90;;;;;;5033757;28;20261;-55
2022/01/05 11:18:29;;;;;;;5.78;5.15;;;4.10;99.90;;;;;;5032816;28;20207;-55
2022/01/05 11:21:01;;;;;;;8.35;5.63;;;4.10;99.90;;;;;;5033366;28;20237;-53
2022/01/05 11:23:30;;;;;;;6.65;5.80;;;4.00;99.90;;;;;;5033170;28;20281;-55
2022/01/05 11:26:06;;;;;;;9.50;5.47;;;3.90;99.90;;;;;;5033168;28;20206;-55
2022/01/05 11:28:34;;;;;;;5.55;5.05;;;3.80;99.90;;;;;;5033344;28;20190;-54
2022/01/05 11:31:01;;;;;;;6.95;5.15;;;3.60;99.90;;;;;;5033465;28;20226;-53
2022/01/05 11:33:28;;;;;;;6.63;5.20;;;3.50;99.90;;;;;;5033572;28;20591;-53
2022/01/05 11:35:57;;;;;;;6.32;5.72;;;3.30;99.90;;;;;;5033524;28;20214;-55
2022/01/05 11:38:24;;;;;;;5.82;5.25;;;3.10;99.90;;;;;;5032957;28;20203;-53
2022/01/05 11:40:55;;;;;;;6.60;5.25;;;3.00;99.90;;;;;;5033326;28;20218;-55
2022/01/05 11:43:27;;;;;;;5.63;4.65;;;3.00;99.90;;;;;;5033227;28;20225;-55
2022/01/05 11:45:54;;;;;;;6.18;5.30;;;2.90;99.90;;;;;;5033548;28;20257;-54
2022/01/05 11:48:25;;;;;;;6.13;5.53;;;2.80;99.90;;;;;;5033176;28;20202;-54
2022/01/05 11:50:54;;;;;;;9.05;6.38;;;2.80;99.90;;;;;;5034050;28;20222;-54
2022/01/05 11:53:38;;;;;;;6.45;5.75;;;2.80;99.90;;;;;;5033216;28;20202;-55
2022/01/05 11:56:25;;;;;;;11.93;6.03;;;2.90;99.90;;;;;;5033095;28;20190;-56
2022/01/05 11:58:58;;;;;;;8.63;6.28;;;2.90;99.90;;;;;;5028358;28;20206;-56
2022/01/05 12:01:37;;;;;;;6.50;5.90;;;2.90;99.90;;;;;;5032990;28;20222;-55
2022/01/05 12:04:10;;;;;;;7.07;6.38;;;3.00;99.90;;;;;;5033252;28;20281;-55
2022/01/05 12:07:06;;;;;;;6.68;6.03;;;3.10;99.90;;;;;;5033204;28;20236;-55
2022/01/05 12:09:37;;;;;;;6.25;5.70;;;3.10;99.90;;;;;;5033256;28;20217;-56
2022/01/05 12:12:31;;;;;;;6.68;6.00;;;3.20;99.90;;;;;;5033390;28;20226;-55
2022/01/05 12:15:01;;;;;;;7.05;6.13;;;3.30;99.90;;;;;;5033471;28;20186;-55
2022/01/05 12:17:29;;;;;;;5.85;5.15;;;3.30;99.90;;;;;;5034447;28;20209;-55
2022/01/05 12:20:13;;;;;;;6.28;5.78;;;3.40;99.90;;;;;;5033399;28;20261;-55
2022/01/05 12:22:40;;;;;;;7.07;6.43;;;3.40;99.90;;;;;;5033215;28;20654;-55
2022/01/05 12:25:20;;;;;;;5.93;5.43;;;3.40;99.90;;;;;;5033313;28;20206;-56
2022/01/05 12:27:53;;;;;;;6.43;5.63;;;3.40;99.90;;;;;;5032800;28;20639;-54
2022/01/05 12:30:36;;;;;;;5.90;5.10;;;3.40;99.90;;;;;;5035479;28;20226;-55
2022/01/05 12:33:08;;;;;;;7.60;6.40;;;3.50;99.90;;;;;;5036961;28;20187;-55
2022/01/05 12:35:59;;;;;;;7.85;5.50;;;3.50;99.90;;;;;;5036800;28;20654;-55
2022/01/05 12:38:47;;;;;;;4.93;4.18;;;3.40;99.90;;;;;;5036609;28;20226;-55
2022/01/05 12:41:37;;;;;;;7.28;5.55;;;3.40;99.90;;;;;;5036965;28;20246;-56
2022/01/05 12:44:43;;;;;;;4.25;3.90;;;3.50;99.90;;;;;;5036672;28;20190;-56
2022/01/05 12:47:13;;;;;;;5.90;4.63;;;3.50;99.90;;;;;;5036948;28;20241;-55
2022/01/05 12:49:41;;;;;;;5.07;4.50;;;3.60;99.90;;;;;;5036243;28;20213;-55
2022/01/05 12:52:12;;;;;;;6.50;4.82;;;3.70;99.90;;;;;;5036470;28;20206;-55
2022/01/05 12:54:45;;;;;;;5.00;3.95;;;3.80;99.90;;;;;;5036339;28;20687;-56
2022/01/05 12:57:17;;;;;;;7.90;3.92;;;3.90;99.90;;;;;;5036339;28;20241;-56
2022/01/05 12:59:49;;;;;;;5.03;3.17;;;3.90;99.90;;;;;;5036474;28;20218;-55
2022/01/05 13:02:23;;;;;;;4.00;2.75;;;3.90;99.90;;;;;;5036293;28;20187;-56
2022/01/05 13:04:51;;;;;;;2.72;2.45;;;3.90;99.90;;;;;;5036210;28;20241;-56
2022/01/05 13:07:19;;;;;;;5.45;3.33;;;3.90;99.90;;;;;;5036661;28;20209;-55
2022/01/05 13:09:49;;;;;;;3.92;2.97;;;3.90;99.90;;;;;;5036935;28;20326;-55